Time;durP1;ratioP1;P1;durP2;ratioP2;P2;SDS_P1;SDS_P2;PMS_P1;PMS_P2;Temp;Humidity;BMP_temperature;BMP_pressure;BME280_temperature;BME280_humidity;BME280_pressure;Samples;Min_cycle;Max_cycle;Signal;HPM_P1;HPM_P2
2021/08/03 00:01:13;;;;;;;3.35;2.65;;;;;;;14.99;71.95;100866.06;5084445;28;20059;-47
2021/08/03 00:03:51;;;;;;;6.40;2.78;;;;;;;15.02;71.89;100861.72;5083305;28;20071;-50
2021/08/03 00:06:31;;;;;;;5.32;3.78;;;;;;;15.02;72.07;100873.69;5084854;28;20101;-42
2021/08/03 00:08:59;;;;;;;4.03;3.05;;;;;;;15.07;71.72;100867.81;5065549;28;20051;-44
2021/08/03 00:11:29;;;;;;;5.68;3.17;;;;;;;15.08;71.71;100869.44;5083074;28;21536;-44
2021/08/03 00:13:59;;;;;;;3.42;2.65;;;;;;;15.09;71.63;100865.44;5083871;28;20047;-43
2021/08/03 00:16:26;;;;;;;5.18;3.17;;;;;;;15.05;71.73;100859.00;5084224;28;20040;-48
2021/08/03 00:18:53;;;;;;;5.78;3.33;;;;;;;15.07;71.88;100867.00;5084342;28;20047;-43
2021/08/03 00:21:21;;;;;;;5.57;3.47;;;;;;;15.05;71.86;100853.44;5084748;28;20048;-43
2021/08/03 00:23:48;;;;;;;3.40;3.00;;;;;;;15.11;71.78;100863.13;5083505;28;20047;-45
2021/08/03 00:26:15;;;;;;;5.60;4.40;;;;;;;15.09;71.57;100851.50;5083761;28;20052;-47
2021/08/03 00:28:49;;;;;;;4.53;4.00;;;;;;;15.08;71.63;100863.03;5083352;28;20042;-46
2021/08/03 00:31:19;;;;;;;6.50;5.38;;;;;;;15.05;71.77;100864.59;5083769;28;20090;-44
2021/08/03 00:33:54;;;;;;;5.82;5.28;;;;;;;15.00;71.83;100852.94;5084283;28;20055;-47
2021/08/03 00:36:31;;;;;;;5.65;5.07;;;;;;;14.94;71.77;100846.88;5083452;28;20152;-42
2021/08/03 00:38:58;;;;;;;6.57;5.10;;;;;;;14.89;71.91;100852.75;5083366;28;20433;-48
2021/08/03 00:41:30;;;;;;;5.53;4.90;;;;;;;14.82;72.23;100847.06;5084036;28;20048;-42
2021/08/03 00:43:57;;;;;;;5.95;4.85;;;;;;;14.74;72.50;100847.31;5082560;28;20044;-49
2021/08/03 00:46:24;;;;;;;4.78;3.58;;;;;;;14.69;72.52;100833.69;5083788;28;20039;-42
2021/08/03 00:48:51;;;;;;;4.63;3.85;;;;;;;14.66;72.58;100848.34;5083136;28;20040;-45
2021/08/03 00:51:20;;;;;;;4.47;3.50;;;;;;;14.60;72.73;100836.69;5083857;28;20044;-42
2021/08/03 00:53:47;;;;;;;5.63;3.70;;;;;;;14.56;72.96;100835.84;5083694;28;20042;-43
2021/08/03 00:56:14;;;;;;;5.78;3.63;;;;;;;14.51;73.07;100834.16;5065215;28;20748;-43
2021/08/03 00:58:42;;;;;;;5.82;3.72;;;;;;;14.48;73.06;100832.09;5083617;28;20056;-44
2021/08/03 01:01:08;;;;;;;5.93;3.58;;;;;;;14.42;73.21;100832.78;5082012;28;20154;-43
2021/08/03 01:03:35;;;;;;;6.10;3.53;;;;;;;14.40;73.12;100833.13;5084248;28;20055;-41
2021/08/03 01:06:33;;;;;;;6.10;3.53;;;;;;;14.39;73.39;100825.16;5083796;28;20043;-42
2021/08/03 01:09:18;;;;;;;4.93;3.40;;;;;;;14.41;73.30;100828.38;5082988;28;20389;-44
2021/08/03 01:11:54;;;;;;;4.80;3.38;;;;;;;14.43;72.89;100834.38;5081491;28;20036;-43
2021/08/03 01:14:35;;;;;;;4.25;3.47;;;;;;;14.36;73.21;100832.28;5082323;28;20484;-43
2021/08/03 01:17:12;;;;;;;4.68;3.08;;;;;;;14.34;73.20;100833.81;5083522;28;20048;-43
2021/08/03 01:20:05;;;;;;;4.90;3.28;;;;;;;14.36;73.00;100834.25;5082943;28;20142;-43
2021/08/03 01:22:45;;;;;;;4.63;3.70;;;;;;;14.30;73.07;100832.88;5083077;28;20177;-43
2021/08/03 01:25:24;;;;;;;7.05;3.75;;;;;;;14.23;73.26;100835.53;5082840;28;20044;-44
2021/08/03 01:28:15;;;;;;;4.05;3.13;;;;;;;14.13;73.49;100823.03;5081391;28;20054;-45
2021/08/03 01:30:46;;;;;;;4.88;3.67;;;;;;;14.06;73.82;100822.09;5083624;28;20149;-43
2021/08/03 01:33:17;;;;;;;4.80;3.33;;;;;;;14.00;73.76;100825.13;5081895;28;20509;-42
2021/08/03 01:35:45;;;;;;;5.90;3.30;;;;;;;13.98;73.69;100815.53;5082017;28;20056;-47
2021/08/03 01:38:18;;;;;;;3.55;2.72;;;;;;;13.96;73.94;100817.91;5083772;28;20055;-46
2021/08/03 01:40:48;;;;;;;4.38;3.13;;;;;;;13.96;73.79;100818.72;5082262;28;20135;-44
2021/08/03 01:43:17;;;;;;;6.03;4.05;;;;;;;13.95;73.85;100810.72;5082408;28;20052;-48
2021/08/03 01:45:45;;;;;;;4.97;3.30;;;;;;;13.92;73.81;100815.06;5064603;28;20066;-44
2021/08/03 01:48:13;;;;;;;6.28;4.03;;;;;;;13.88;73.93;100811.38;5081929;28;20044;-47
2021/08/03 01:50:42;;;;;;;4.45;3.58;;;;;;;13.82;73.96;100810.03;5082330;28;20075;-42
2021/08/03 01:53:12;;;;;;;6.88;3.65;;;;;;;13.81;74.04;100808.47;5082680;28;20082;-43
2021/08/03 01:55:39;;;;;;;5.10;4.05;;;;;;;13.82;74.14;100807.25;5080953;28;20044;-42
2021/08/03 01:58:06;;;;;;;5.88;4.03;;;;;;;13.80;74.03;100803.25;5082508;28;20079;-46
2021/08/03 02:00:33;;;;;;;4.95;3.75;;;;;;;13.77;74.19;100803.97;5082531;28;20131;-44
2021/08/03 02:03:01;;;;;;;7.55;3.53;;;;;;;13.74;74.25;100811.06;5082951;28;20051;-39
2021/08/03 02:05:29;;;;;;;5.63;2.65;;;;;;;13.72;74.30;100802.28;5081993;28;20064;-40
2021/08/03 02:07:59;;;;;;;5.50;3.50;;;;;;;13.68;74.18;100806.16;5081371;28;20056;-40
2021/08/03 02:10:26;;;;;;;4.53;3.35;;;;;;;13.66;74.48;100802.94;5081825;28;20044;-45
2021/08/03 02:12:54;;;;;;;6.50;3.42;;;;;;;13.69;74.16;100796.63;5082401;28;20068;-42
2021/08/03 02:15:20;;;;;;;5.47;3.33;;;;;;;13.76;73.96;100796.81;5081043;28;20051;-40
2021/08/03 02:17:47;;;;;;;7.78;4.63;;;;;;;13.79;73.71;100796.88;5081785;28;20071;-43
2021/08/03 02:20:14;;;;;;;3.70;2.90;;;;;;;13.78;73.71;100798.06;5082342;28;20377;-40
2021/08/03 02:22:44;;;;;;;5.15;3.25;;;;;;;13.76;73.83;100791.25;5081586;28;20133;-43
2021/08/03 02:25:12;;;;;;;4.93;3.53;;;;;;;13.71;74.07;100794.31;5082053;28;20044;-43
2021/08/03 02:27:39;;;;;;;4.75;3.72;;;;;;;13.63;74.26;100792.56;5079892;28;20052;-40
2021/08/03 02:30:07;;;;;;;5.13;3.33;;;;;;;13.59;74.48;100795.25;5080557;28;20448;-40
2021/08/03 02:32:43;;;;;;;5.60;3.30;;;;;;;13.57;74.66;100800.38;5080493;28;20062;-41
2021/08/03 02:35:22;;;;;;;5.10;3.25;;;;;;;13.63;74.45;100798.13;5080590;28;20089;-41
2021/08/03 02:37:58;;;;;;;8.35;3.53;;;;;;;13.64;74.15;100785.78;5082011;28;20132;-41
2021/08/03 02:40:26;;;;;;;5.20;3.47;;;;;;;13.59;74.07;100789.69;5062994;28;20392;-41
2021/08/03 02:42:54;;;;;;;4.05;3.33;;;;;;;13.54;74.30;100791.94;5081821;28;20039;-40
2021/08/03 02:45:22;;;;;;;3.65;2.90;;;;;;;13.50;74.50;100786.31;5081170;28;20055;-43
2021/08/03 02:47:54;;;;;;;4.57;3.65;;;;;;;13.53;74.51;100787.56;5081029;28;20084;-41
2021/08/03 02:50:23;;;;;;;7.00;4.68;;;;;;;13.46;74.65;100790.97;5080863;28;20035;-41
2021/08/03 02:52:56;;;;;;;5.07;3.28;;;;;;;13.42;74.91;100787.34;5081373;28;20044;-41
2021/08/03 02:55:31;;;;;;;4.72;3.15;;;;;;;13.40;75.08;100790.47;5082314;28;20050;-40
2021/08/03 02:58:07;;;;;;;5.85;3.85;;;;;;;13.35;75.18;100778.81;5080005;28;20056;-40
2021/08/03 03:00:38;;;;;;;6.25;3.60;;;;;;;13.31;75.13;100775.16;5081783;28;20036;-40
2021/08/03 03:03:11;;;;;;;4.22;3.30;;;;;;;13.28;75.35;100781.44;5080508;28;20078;-41
2021/08/03 03:05:42;;;;;;;5.53;3.22;;;;;;;13.25;75.00;100776.59;5081128;28;20044;-44
2021/08/03 03:08:12;;;;;;;8.23;3.70;;;;;;;13.23;75.46;100776.16;5080410;28;20036;-42
2021/08/03 03:10:47;;;;;;;7.03;3.97;;;;;;;13.21;75.63;100775.72;5081317;28;20405;-42
2021/08/03 03:13:22;;;;;;;5.95;3.85;;;;;;;13.16;75.74;100779.56;5080813;28;20090;-46
2021/08/03 03:15:50;;;;;;;4.38;3.47;;;;;;;13.15;75.72;100772.41;5080379;28;20051;-43
2021/08/03 03:18:20;;;;;;;7.20;4.43;;;;;;;13.16;75.80;100768.44;5080778;28;20126;-42
2021/08/03 03:20:47;;;;;;;9.25;4.45;;;;;;;13.13;75.68;100762.81;5081044;28;20054;-43
2021/08/03 03:23:17;;;;;;;6.00;4.38;;;;;;;13.10;75.81;100763.53;5080633;28;20048;-47
2021/08/03 03:25:47;;;;;;;5.80;3.88;;;;;;;13.09;75.68;100759.13;5081150;28;20036;-42
2021/08/03 03:28:15;;;;;;;5.97;4.13;;;;;;;13.09;75.63;100762.72;5080136;28;20479;-42
2021/08/03 03:30:44;;;;;;;5.15;3.42;;;;;;;13.08;75.64;100761.09;5079411;28;20114;-42
2021/08/03 03:33:12;;;;;;;6.28;4.40;;;;;;;13.06;75.75;100757.06;5079149;28;20483;-43
2021/08/03 03:35:40;;;;;;;7.70;5.00;;;;;;;13.02;75.81;100756.19;5079088;28;20051;-42
2021/08/03 03:38:07;;;;;;;7.43;3.83;;;;;;;13.01;75.91;100749.00;5080410;28;20044;-42
2021/08/03 03:40:35;;;;;;;5.35;3.88;;;;;;;12.99;76.03;100748.56;5080069;28;20066;-45
2021/08/03 03:43:03;;;;;;;6.07;3.90;;;;;;;13.00;76.05;100750.19;5080935;28;20546;-46
2021/08/03 03:45:31;;;;;;;6.35;4.20;;;;;;;12.98;75.94;100749.72;5080528;28;20135;-41
2021/08/03 03:48:01;;;;;;;6.95;4.03;;;;;;;12.97;75.98;100737.00;5080722;28;20076;-45
2021/08/03 03:50:33;;;;;;;6.70;3.90;;;;;;;12.90;76.00;100742.38;5063270;28;20052;-43
2021/08/03 03:53:13;;;;;;;6.47;3.90;;;;;;;12.92;76.16;100742.84;5081943;28;20536;-43
2021/08/03 03:55:49;;;;;;;4.97;3.70;;;;;;;12.95;75.80;100739.31;5080972;28;20130;-42
2021/08/03 03:58:18;;;;;;;3.65;3.30;;;;;;;12.93;76.01;100739.69;5080254;28;20039;-43
2021/08/03 04:00:48;;;;;;;8.55;3.50;;;;;;;12.91;75.96;100738.44;5081531;28;20047;-41
2021/08/03 04:03:19;;;;;;;5.75;3.80;;;;;;;12.91;76.03;100733.69;5081149;28;20052;-43
2021/08/03 04:05:48;;;;;;;7.55;4.15;;;;;;;12.90;76.03;100737.63;5080463;28;20044;-43
2021/08/03 04:08:15;;;;;;;4.45;3.30;;;;;;;12.91;75.95;100736.47;5081092;28;20795;-49
2021/08/03 04:11:02;;;;;;;6.22;3.55;;;;;;;12.91;75.90;100732.88;5078311;28;20048;-41
2021/08/03 04:13:30;;;;;;;6.55;4.00;;;;;;;12.93;75.96;100741.66;5061945;28;20048;-42
2021/08/03 04:15:58;;;;;;;6.88;4.25;;;;;;;12.89;75.92;100740.78;5080282;28;20055;-43
2021/08/03 04:18:25;;;;;;;6.43;4.20;;;;;;;12.86;76.15;100739.53;5080354;28;20040;-44
2021/08/03 04:20:52;;;;;;;7.22;3.70;;;;;;;12.86;76.20;100735.94;5080345;28;20078;-42
2021/08/03 04:23:19;;;;;;;8.15;4.80;;;;;;;12.83;76.17;100741.06;5080611;28;20059;-40
2021/08/03 04:25:46;;;;;;;7.10;4.50;;;;;;;12.84;76.50;100731.53;5080654;28;20048;-40
2021/08/03 04:28:13;;;;;;;6.85;4.07;;;;;;;12.86;76.60;100735.94;5078807;28;20048;-43
2021/08/03 04:30:40;;;;;;;6.18;3.42;;;;;;;12.92;76.58;100745.63;5079804;28;20044;-42
2021/08/03 04:33:11;;;;;;;8.15;4.38;;;;;;;12.94;76.55;100735.75;5079577;28;20059;-42
2021/08/03 04:35:39;;;;;;;6.70;4.47;;;;;;;12.95;76.52;100739.31;5079690;28;20486;-41
2021/08/03 04:38:06;;;;;;;6.50;3.80;;;;;;;12.97;76.74;100745.34;5080581;28;20048;-46
2021/08/03 04:40:33;;;;;;;5.45;3.75;;;;;;;13.02;76.63;100739.50;5079943;28;20101;-41
2021/08/03 04:43:00;;;;;;;6.72;4.30;;;;;;;13.06;76.50;100737.59;5080154;28;20094;-44
2021/08/03 04:45:27;;;;;;;6.28;3.70;;;;;;;13.06;76.65;100735.63;5079060;28;20055;-40
2021/08/03 04:47:54;;;;;;;8.38;4.63;;;;;;;13.09;76.86;100728.56;5083650;28;20044;-40
2021/08/03 04:50:27;;;;;;;6.75;3.50;;;;;;;13.08;77.00;100729.75;5084006;28;20044;-41
2021/08/03 04:52:56;;;;;;;5.47;3.58;;;;;;;13.10;76.89;100724.63;5084165;28;20040;-41
2021/08/03 04:55:23;;;;;;;4.57;3.15;;;;;;;13.11;76.73;100731.78;5083721;28;20040;-42
2021/08/03 04:57:50;;;;;;;5.95;3.75;;;;;;;13.09;76.83;100731.34;5083200;28;20040;-40
2021/08/03 05:00:17;;;;;;;5.00;3.33;;;;;;;13.11;76.77;100737.34;5083244;28;20044;-41
2021/08/03 05:02:44;;;;;;;6.07;3.70;;;;;;;13.10;77.04;100730.19;5083537;28;20155;-45
2021/08/03 05:05:13;;;;;;;5.18;3.80;;;;;;;13.10;77.22;100739.34;5083327;28;20555;-48
2021/08/03 05:07:52;;;;;;;5.10;4.00;;;;;;;13.12;77.19;100734.22;5083282;28;20055;-45
2021/08/03 05:10:19;;;;;;;10.43;5.40;;;;;;;13.17;77.24;100747.84;5083223;28;20039;-41
2021/08/03 05:12:46;;;;;;;5.10;3.75;;;;;;;13.22;77.15;100741.19;5082727;28;20542;-41
2021/08/03 05:15:12;;;;;;;9.32;4.75;;;;;;;13.28;77.27;100734.16;5083170;28;20040;-43
2021/08/03 05:17:40;;;;;;;7.80;4.32;;;;;;;13.33;77.17;100745.00;5082428;28;20668;-43
2021/08/03 05:20:08;;;;;;;7.40;4.63;;;;;;;13.36;77.22;100733.97;5083951;28;20512;-41
2021/08/03 05:22:34;;;;;;;7.78;5.30;;;;;;;13.42;77.42;100731.72;5082254;28;20067;-40
2021/08/03 05:25:02;;;;;;;7.20;4.78;;;;;;;13.46;77.44;100732.56;5082663;28;20139;-41
2021/08/03 05:27:29;;;;;;;8.48;5.15;;;;;;;13.54;77.45;100734.34;5081946;28;20040;-44
2021/08/03 05:29:56;;;;;;;9.40;5.57;;;;;;;13.61;77.71;100739.25;5082286;28;20048;-41
2021/08/03 05:32:23;;;;;;;10.75;5.32;;;;;;;13.69;77.75;100735.44;5081190;28;20129;-41
2021/08/03 05:34:51;;;;;;;8.18;5.85;;;;;;;13.78;77.64;100734.06;5080919;28;20151;-41
2021/08/03 05:37:19;;;;;;;10.02;5.90;;;;;;;13.87;77.60;100737.41;5083228;28;20447;-42
2021/08/03 05:39:45;;;;;;;9.10;5.28;;;;;;;13.96;77.66;100742.75;5082939;28;20139;-47
2021/08/03 05:42:13;;;;;;;6.20;5.07;;;;;;;14.00;77.80;100738.84;5083015;28;20050;-41
2021/08/03 05:44:41;;;;;;;10.32;5.35;;;;;;;14.07;77.71;100740.16;5083173;28;20055;-42
2021/08/03 05:47:09;;;;;;;13.35;6.80;;;;;;;14.13;77.81;100738.69;5081349;28;20098;-41
2021/08/03 05:49:36;;;;;;;11.38;6.07;;;;;;;14.22;77.74;100733.69;5083040;28;20549;-41
2021/08/03 05:52:05;;;;;;;9.38;5.72;;;;;;;14.30;77.84;100744.59;5081783;28;20044;-42
2021/08/03 05:54:32;;;;;;;8.98;5.50;;;;;;;14.40;77.57;100740.44;5082493;28;20044;-41
2021/08/03 05:56:58;;;;;;;10.95;4.57;;;;;;;14.47;77.48;100740.53;5081950;28;20548;-41
2021/08/03 05:59:26;;;;;;;6.50;4.80;;;;;;;14.54;77.32;100733.09;5081527;28;20032;-41
2021/08/03 06:01:53;;;;;;;7.55;4.38;;;;;;;14.60;77.17;100736.41;5082361;28;20135;-43
2021/08/03 06:04:20;;;;;;;6.20;4.03;;;;;;;14.67;76.98;100736.50;5082097;28;20051;-47
2021/08/03 06:06:49;;;;;;;9.20;4.70;;;;;;;14.73;76.84;100737.81;5081267;28;20056;-41
2021/08/03 06:09:18;;;;;;;9.07;4.57;;;;;;;14.77;76.95;100733.09;5081293;28;20047;-41
2021/08/03 06:11:50;;;;;;;5.75;3.85;;;;;;;14.82;76.81;100737.56;5082101;28;20040;-41
2021/08/03 06:14:40;;;;;;;7.28;4.22;;;;;;;14.85;77.08;100737.59;5082436;28;20493;-46
2021/08/03 06:17:09;;;;;;;7.88;4.65;;;;;;;14.89;76.64;100735.69;5081931;28;20048;-46
2021/08/03 06:19:46;;;;;;;7.68;4.15;;;;;;;14.93;76.49;100735.75;5080861;28;20048;-44
2021/08/03 06:22:13;;;;;;;7.82;4.18;;;;;;;14.95;76.58;100741.75;5081698;28;20155;-47
2021/08/03 06:24:41;;;;;;;6.28;4.35;;;;;;;14.95;76.29;100736.97;5081701;28;20139;-43
2021/08/03 06:27:10;;;;;;;7.70;4.28;;;;;;;15.01;76.31;100735.44;5081283;28;20055;-43
2021/08/03 06:29:39;;;;;;;5.65;3.97;;;;;;;15.05;76.16;100736.31;5081887;28;20071;-44
2021/08/03 06:32:09;;;;;;;4.95;3.67;;;;;;;15.09;76.25;100731.59;5081431;28;20055;-46
2021/08/03 06:34:39;;;;;;;7.47;4.05;;;;;;;15.15;76.14;100734.88;5081368;28;20048;-43
2021/08/03 06:37:06;;;;;;;6.18;4.00;;;;;;;15.18;76.22;100729.34;5081756;28;20048;-51
2021/08/03 06:39:34;;;;;;;7.85;4.28;;;;;;;15.18;75.93;100728.53;5081587;28;20235;-42
2021/08/03 06:42:04;;;;;;;7.63;4.70;;;;;;;15.20;75.98;100732.56;5081796;28;20044;-43
2021/08/03 06:44:55;;;;;;;6.88;4.70;;;;;;;15.21;76.11;100739.75;5082553;28;20048;-44
2021/08/03 06:47:42;;;;;;;5.65;4.03;;;;;;;15.20;75.86;100735.34;5081457;28;20059;-45
2021/08/03 06:50:11;;;;;;;8.13;4.40;;;;;;;15.22;75.93;100732.19;5081174;28;20078;-48
2021/08/03 06:52:37;;;;;;;6.90;4.18;;;;;;;15.25;75.98;100726.66;5080358;28;20032;-50
2021/08/03 06:55:07;;;;;;;6.53;4.57;;;;;;;15.32;75.87;100725.97;5081558;28;20101;-46
2021/08/03 06:57:35;;;;;;;7.38;4.65;;;;;;;15.39;75.88;100730.81;5080578;28;20466;-43
2021/08/03 07:00:09;;;;;;;6.53;3.90;;;;;;;15.42;75.69;100730.06;5081784;28;20054;-42
2021/08/03 07:02:48;;;;;;;9.30;4.43;;;;;;;15.42;75.55;100730.06;5081479;28;20409;-45
2021/08/03 07:05:19;;;;;;;7.25;4.43;;;;;;;15.42;75.57;100721.69;5081035;28;20109;-43
2021/08/03 07:07:47;;;;;;;8.10;5.22;;;;;;;15.45;75.73;100723.72;5080846;28;20032;-43
2021/08/03 07:10:14;;;;;;;7.07;3.88;;;;;;;15.50;75.42;100731.81;5081517;28;20051;-44
2021/08/03 07:12:43;;;;;;;9.65;4.50;;;;;;;15.52;75.44;100733.03;5080753;28;20456;-53
2021/08/03 07:15:13;;;;;;;8.50;6.00;;;;;;;15.56;75.46;100733.91;5079763;28;20631;-43
2021/08/03 07:17:41;;;;;;;9.10;4.38;;;;;;;15.60;75.50;100728.34;5079146;28;20065;-43
2021/08/03 07:20:10;;;;;;;8.57;5.43;;;;;;;15.65;75.38;100725.22;5080527;28;20068;-51
2021/08/03 07:22:40;;;;;;;9.02;5.93;;;;;;;15.70;75.31;100731.25;5080436;28;20559;-43
2021/08/03 07:25:10;;;;;;;9.38;5.13;;;;;;;15.73;75.10;100738.06;5080367;28;20105;-50
2021/08/03 07:27:40;;;;;;;8.45;4.40;;;;;;;15.75;75.15;100732.94;5081278;28;20873;-43
2021/08/03 07:30:11;;;;;;;7.90;4.47;;;;;;;15.80;75.07;100743.75;5080651;28;20167;-43
2021/08/03 07:32:38;;;;;;;7.10;3.92;;;;;;;15.80;75.04;100739.00;5080544;28;20075;-50
2021/08/03 07:35:07;;;;;;;7.40;4.85;;;;;;;15.84;74.89;100727.84;5080131;28;20067;-44
2021/08/03 07:37:35;;;;;;;8.70;5.00;;;;;;;15.86;74.82;100727.47;5081281;28;20058;-44
2021/08/03 07:40:03;;;;;;;7.97;4.00;;;;;;;15.89;74.72;100730.28;5081452;28;20405;-43
2021/08/03 07:42:50;;;;;;;5.72;4.35;;;;;;;15.94;74.55;100727.16;5080780;28;20056;-45
2021/08/03 07:45:17;;;;;;;7.65;4.43;;;;;;;15.95;74.48;100733.53;5081064;28;20043;-43
2021/08/03 07:47:44;;;;;;;10.43;5.80;;;;;;;15.97;74.29;100740.34;5080795;28;20444;-50
2021/08/03 07:50:13;;;;;;;7.28;4.00;;;;;;;16.03;74.35;100738.84;5080858;28;20465;-45
2021/08/03 07:52:40;;;;;;;7.65;4.22;;;;;;;16.09;74.26;100734.53;5062887;28;20073;-46
2021/08/03 07:55:09;;;;;;;7.55;4.22;;;;;;;16.11;73.96;100742.50;5080571;28;20054;-48
2021/08/03 07:57:36;;;;;;;5.18;3.53;;;;;;;16.12;73.88;100738.53;5080043;28;20048;-45
2021/08/03 08:00:04;;;;;;;5.72;3.60;;;;;;;16.13;73.85;100746.53;5081020;28;20062;-45
2021/08/03 08:02:31;;;;;;;7.10;4.18;;;;;;;16.19;73.81;100749.78;5080252;28;20107;-43
2021/08/03 08:04:59;;;;;;;7.45;3.50;;;;;;;16.22;73.69;100749.03;5080225;28;20052;-44
2021/08/03 08:07:27;;;;;;;8.18;4.70;;;;;;;16.26;73.62;100750.66;5061264;28;20041;-44
2021/08/03 08:09:54;;;;;;;9.43;4.38;;;;;;;16.29;73.43;100738.72;5081002;28;20043;-46
2021/08/03 08:12:21;;;;;;;9.20;5.15;;;;;;;16.35;73.19;100751.16;5080702;28;20036;-43
2021/08/03 08:14:48;;;;;;;4.93;3.65;;;;;;;16.38;73.08;100747.59;5079095;28;20044;-45
2021/08/03 08:17:15;;;;;;;7.70;4.13;;;;;;;16.41;72.94;100748.81;5080626;28;20044;-45
2021/08/03 08:19:43;;;;;;;5.40;3.40;;;;;;;16.43;72.93;100749.22;5080319;28;20533;-47
2021/08/03 08:22:12;;;;;;;5.90;4.10;;;;;;;16.49;72.93;100746.91;5082807;28;20484;-43
2021/08/03 08:24:39;;;;;;;4.93;3.63;;;;;;;16.52;72.83;100752.50;5086107;28;20132;-48
2021/08/03 08:27:07;;;;;;;6.10;3.55;;;;;;;16.60;72.81;100753.41;5085480;28;20040;-43
2021/08/03 08:29:34;;;;;;;5.85;3.70;;;;;;;16.63;72.28;100749.81;5083348;28;20428;-45
2021/08/03 08:32:02;;;;;;;7.80;4.38;;;;;;;16.67;72.04;100756.28;5084387;28;20066;-44
2021/08/03 08:34:30;;;;;;;8.10;3.92;;;;;;;16.74;71.93;100754.34;5083944;28;20068;-42
2021/08/03 08:36:57;;;;;;;6.60;3.63;;;;;;;16.78;71.81;100754.38;5083184;28;20147;-47
2021/08/03 08:39:25;;;;;;;5.50;3.50;;;;;;;16.80;71.70;100763.16;5067230;28;20086;-42
2021/08/03 08:41:52;;;;;;;7.47;4.57;;;;;;;16.77;71.74;100759.16;5083066;28;20177;-43
2021/08/03 08:44:19;;;;;;;13.15;4.57;;;;;;;16.80;71.77;100758.38;5083922;28;20050;-48
2021/08/03 08:46:46;;;;;;;8.15;4.30;;;;;;;16.88;71.71;100762.84;5065324;28;20051;-42
2021/08/03 08:49:14;;;;;;;7.00;3.63;;;;;;;16.93;71.68;100750.50;5084098;28;20182;-43
2021/08/03 08:51:41;;;;;;;6.78;3.72;;;;;;;16.97;71.50;100754.91;5084069;28;20080;-46
2021/08/03 08:54:08;;;;;;;5.70;3.92;;;;;;;17.02;71.26;100754.53;5082423;28;20052;-43
2021/08/03 08:56:35;;;;;;;5.88;3.50;;;;;;;17.10;71.07;100760.22;5065896;28;20044;-42
2021/08/03 08:59:02;;;;;;;7.50;3.15;;;;;;;17.15;71.04;100752.25;5083530;28;20055;-42
2021/08/03 09:01:49;;;;;;;4.65;3.45;;;;;;;17.19;71.11;100755.88;5083535;28;20059;-42
2021/08/03 09:04:16;;;;;;;5.72;3.20;;;;;;;17.18;70.84;100748.69;5083929;28;20044;-42
2021/08/03 09:07:00;;;;;;;4.88;3.30;;;;;;;17.17;70.27;100755.47;5083502;28;20728;-47
2021/08/03 09:09:43;;;;;;;7.18;3.60;;;;;;;17.21;70.25;100739.50;5082802;28;20132;-43
2021/08/03 09:12:13;;;;;;;5.22;3.65;;;;;;;17.30;70.22;100736.34;5084227;28;20511;-47
2021/08/03 09:14:43;;;;;;;5.82;3.53;;;;;;;17.37;70.05;100742.78;5083757;28;20044;-47
2021/08/03 09:17:25;;;;;;;7.13;3.87;;;;;;;17.43;69.56;100741.22;5082860;28;20117;-41
2021/08/03 09:19:53;;;;;;;9.80;3.22;;;;;;;17.49;69.93;100739.69;5083003;28;20047;-45
2021/08/03 09:22:23;;;;;;;4.88;3.53;;;;;;;17.51;69.58;100734.47;5083639;28;20070;-42
2021/08/03 09:25:12;;;;;;;5.60;3.30;;;;;;;17.58;68.96;100734.53;5083545;28;20048;-42
2021/08/03 09:27:48;;;;;;;8.20;3.40;;;;;;;17.69;69.14;100736.56;5082873;28;20068;-42
2021/08/03 09:30:17;;;;;;;13.77;3.78;;;;;;;17.80;68.64;100743.03;5083134;28;20059;-44
2021/08/03 09:32:46;;;;;;;3.25;2.05;;;;;;;17.85;68.73;100745.44;5064112;28;20051;-42
2021/08/03 09:35:17;;;;;;;;;;;;;;;17.90;68.20;100731.88;5082943;28;20044;-47
2021/08/03 09:37:44;;;;;;;4.75;3.45;;;;;;;17.93;68.48;100735.88;5082341;28;20031;-41
2021/08/03 09:40:24;;;;;;;3.55;2.47;;;;;;;17.93;67.64;100727.47;5083931;28;20051;-46
2021/08/03 09:42:59;;;;;;;5.07;3.40;;;;;;;17.93;67.59;100731.06;5082768;28;20048;-44
2021/08/03 09:45:29;;;;;;;3.25;2.50;;;;;;;17.97;67.74;100726.31;5082260;28;20457;-43
2021/08/03 09:48:26;;;;;;;4.85;3.25;;;;;;;18.06;67.18;100728.72;5083279;28;20048;-43
2021/08/03 09:51:05;;;;;;;6.40;3.40;;;;;;;18.08;67.23;100717.94;5069526;28;20058;-42
2021/08/03 09:53:50;;;;;;;3.88;2.88;;;;;;;18.20;67.17;100723.16;5083358;28;20063;-43
2021/08/03 09:56:39;;;;;;;3.58;2.22;;;;;;;18.28;66.59;100719.16;5082156;28;20515;-43
2021/08/03 09:59:07;;;;;;;4.28;2.92;;;;;;;18.41;66.73;100723.19;5082787;28;20044;-43
2021/08/03 10:01:39;;;;;;;6.32;3.10;;;;;;;18.49;66.28;100724.81;5082737;28;20055;-45
2021/08/03 10:04:12;;;;;;;3.55;3.00;;;;;;;18.58;65.67;100716.03;5082825;28;20473;-42
2021/08/03 10:06:42;;;;;;;4.25;3.50;;;;;;;18.57;65.84;100723.63;5082400;28;20127;-42
2021/08/03 10:09:12;;;;;;;4.72;2.85;;;;;;;18.55;65.58;100717.63;5082796;28;20553;-43
2021/08/03 10:11:39;;;;;;;4.50;3.38;;;;;;;18.55;65.24;100725.22;5084325;28;20036;-43
2021/08/03 10:14:24;;;;;;;4.75;2.90;;;;;;;18.55;65.25;100720.44;5082225;28;20536;-42
2021/08/03 10:16:53;;;;;;;5.45;3.28;;;;;;;18.56;65.32;100716.41;5082734;28;20485;-45
2021/08/03 10:19:23;;;;;;;9.40;4.03;;;;;;;18.57;65.09;100718.03;5082794;28;20061;-44
2021/08/03 10:22:08;;;;;;;4.32;3.05;;;;;;;18.59;64.46;100718.41;5082296;28;20896;-43
2021/08/03 10:24:38;;;;;;;4.72;4.05;;;;;;;18.70;65.12;100712.81;5083200;28;20052;-45
2021/08/03 10:27:15;;;;;;;4.68;2.92;;;;;;;18.81;63.56;100717.22;5082630;28;20052;-49
2021/08/03 10:29:59;;;;;;;4.00;3.15;;;;;;;18.93;64.45;100715.22;5082672;28;20822;-46
2021/08/03 10:32:47;;;;;;;6.55;2.90;;;;;;;19.15;63.69;100711.16;5081935;28;20083;-45
2021/08/03 10:35:18;;;;;;;4.95;3.25;;;;;;;19.25;64.12;100708.31;5080964;28;20056;-42
2021/08/03 10:37:56;;;;;;;5.13;2.70;;;;;;;19.30;63.06;100707.91;5082320;28;20093;-43
2021/08/03 10:40:43;;;;;;;6.57;3.30;;;;;;;19.35;63.50;100709.53;5082473;28;20450;-44
2021/08/03 10:43:35;;;;;;;5.68;2.92;;;;;;;19.38;62.84;100711.53;5063774;28;20044;-41
2021/08/03 10:46:08;;;;;;;4.93;2.53;;;;;;;19.28;63.41;100698.28;5081861;28;20048;-47
2021/08/03 10:48:38;;;;;;;12.90;3.65;;;;;;;19.17;62.98;100703.94;5082273;28;20058;-42
2021/08/03 10:54:14;;;;;;;5.60;2.95;;;;;;;18.99;62.53;100702.34;5081508;28;20052;-43
2021/08/03 10:56:54;;;;;;;4.65;3.28;;;;;;;18.88;62.60;100702.38;5063389;28;20036;-42
2021/08/03 10:59:30;;;;;;;2.88;2.55;;;;;;;18.79;63.01;100697.19;5081626;28;20028;-41
2021/08/03 11:01:59;;;;;;;3.75;2.60;;;;;;;18.72;63.31;100699.97;5080323;28;20050;-42
2021/08/03 11:04:48;;;;;;;4.70;3.70;;;;;;;18.62;63.38;100695.19;5081819;28;20051;-44
2021/08/03 11:07:27;;;;;;;4.03;2.83;;;;;;;18.54;63.67;100695.56;5080989;28;20111;-44
2021/08/03 11:09:55;;;;;;;3.78;2.70;;;;;;;18.47;63.97;100698.34;5081824;28;20518;-44
2021/08/03 11:12:48;;;;;;;4.85;2.38;;;;;;;18.40;64.20;100693.53;5081366;28;20040;-41
2021/08/03 11:15:21;;;;;;;4.82;2.50;;;;;;;18.33;64.25;100703.94;5082180;28;20068;-41
2021/08/03 11:17:53;;;;;;;5.97;2.42;;;;;;;18.24;64.23;100705.13;5080208;28;20067;-41
2021/08/03 11:20:35;;;;;;;6.03;2.55;;;;;;;18.11;63.60;100697.50;5081816;28;20052;-43
2021/08/03 11:23:05;;;;;;;;;;;;;;;17.94;63.85;100703.88;5081682;28;20048;-43
2021/08/03 11:25:46;;;;;;;4.25;2.38;;;;;;;17.88;64.18;100700.66;5081851;28;20404;-41
2021/08/03 11:28:21;;;;;;;2.65;1.92;;;;;;;17.85;63.86;100706.22;5080649;28;20122;-41
2021/08/03 11:30:51;;;;;;;4.50;2.70;;;;;;;17.79;64.22;100708.63;5080080;28;20639;-45
2021/08/03 11:33:20;;;;;;;3.05;2.22;;;;;;;17.77;64.37;100699.00;5081343;28;20059;-45
2021/08/03 11:35:47;;;;;;;4.10;2.40;;;;;;;17.72;64.55;100702.19;5079223;28;20055;-43
2021/08/03 11:38:17;;;;;;;3.47;2.42;;;;;;;17.69;64.77;100698.19;5081330;28;20048;-42
2021/08/03 11:40:44;;;;;;;5.40;2.60;;;;;;;17.66;64.66;100703.78;5081604;28;20131;-46
2021/08/03 11:43:12;;;;;;;8.30;2.78;;;;;;;17.57;64.94;100706.94;5080783;28;20048;-42
2021/08/03 11:45:41;;;;;;;5.22;3.03;;;;;;;17.48;65.31;100704.47;5080114;28;20130;-48